PWSweather.com
Personal Weather Stations
Station Observations
MFGBD
Tower Mfg , BavendorfDE

Tower Mfg BavendorfDE

Lat: 47.752282, Lon: 9.549614

Elevation: 1525

Station Type: Wounder Weather Station

Latest ConditionsUpdated 6:37:30 PM GMT+01:01 Sunday, Jan 26, 2020
Currently Today's Max Today's Min Today's Average
Temperature 33.0°F0.6°C 41.5°F5.3°C 28.2°F-2.1°C 33.7°F0.9°C
Dew Point 33.0°F0.6°C 41.1°F5.1°C 28.2°F-2.1°C 33.7°F0.9°C
Winds 1.0 mph SSW1.6 kmh SSW 1.7 mph -2.7 kmh - - 0.2 mph 0.3 kmh
Wind Gusts 2.5 mph4.0 kmh 4.3 mph6.9 kmh - -
Humidity 100% 100% 97% 100%
Pressure 30.00 in1015.9 mb 30.05 in1017.6 mb 29.99 in1015.6 mb -
Hour Temp Dew Point Humidity Winds Wind Gusts Pressure Precip Precip Rate Daily Precip Total
06:37 PM 33.0°F0.6°C 33.0°F0.6°C 100% 1.0 mph SSW1.6 kmh SSW 2.5 mph4.0 kmh 30.00 in1015.9 mb 0.00 in0.0 mm 0.00 in0.0 mm 0.00 in0.0 mm
06:07 PM 33.0°F0.6°C 33.0°F0.6°C 100% Calm Calm -- 30.00 in1015.9 mb 0.00 in0.0 mm 0.00 in0.0 mm 0.00 in0.0 mm
05:37 PM 34.1°F1.2°C 34.1°F1.2°C 100% 0.3 mph WSW0.5 kmh WSW 1.8 mph2.9 kmh 29.99 in1015.6 mb 0.00 in0.0 mm 0.00 in0.0 mm 0.00 in0.0 mm
05:07 PM 35.4°F1.9°C 35.3°F1.8°C 99% 0.3 mph S0.5 kmh S 3.4 mph5.5 kmh 29.99 in1015.6 mb 0.00 in0.0 mm 0.00 in0.0 mm 0.00 in0.0 mm
04:37 PM 36.8°F2.7°C 36.5°F2.5°C 98% 0.1 mph SSE0.2 kmh SSE 2.8 mph4.5 kmh 29.99 in1015.6 mb 0.00 in0.0 mm 0.00 in0.0 mm 0.00 in0.0 mm
04:07 PM 38.4°F3.6°C 37.9°F3.3°C 98% 1.7 mph S2.7 kmh S 3.7 mph6.0 kmh 30.00 in1015.9 mb 0.00 in0.0 mm 0.00 in0.0 mm 0.00 in0.0 mm
03:37 PM 40.8°F4.9°C 40.2°F4.6°C 97% Calm Calm -- 30.01 in1016.3 mb 0.00 in0.0 mm 0.00 in0.0 mm 0.00 in0.0 mm
03:07 PM 40.4°F4.7°C 40.0°F4.4°C 98% 0.5 mph SW0.8 kmh SW 2.5 mph4.0 kmh 30.01 in1016.3 mb 0.00 in0.0 mm 0.00 in0.0 mm 0.00 in0.0 mm
02:37 PM 41.5°F5.3°C 41.1°F5.1°C 98% 0.2 mph S0.3 kmh S 2.8 mph4.5 kmh 30.01 in1016.3 mb 0.00 in0.0 mm 0.00 in0.0 mm 0.00 in0.0 mm
02:07 PM 40.8°F4.9°C 40.8°F4.9°C 100% 0.2 mph S0.3 kmh S 3.1 mph5.0 kmh 30.01 in1016.3 mb 0.00 in0.0 mm 0.00 in0.0 mm 0.00 in0.0 mm
01:37 PM 39.5°F4.2°C 39.5°F4.2°C 100% 1.6 mph WSW2.6 kmh WSW 3.7 mph6.0 kmh 30.01 in1016.3 mb 0.00 in0.0 mm 0.00 in0.0 mm 0.00 in0.0 mm
01:07 PM 40.2°F4.6°C 40.2°F4.6°C 100% 0.3 mph SSW0.5 kmh SSW 4.3 mph6.9 kmh 30.02 in1016.6 mb 0.00 in0.0 mm 0.00 in0.0 mm 0.00 in0.0 mm
12:37 PM 38.6°F3.7°C 38.6°F3.7°C 100% 1.1 mph SW1.8 kmh SW 3.7 mph6.0 kmh 30.02 in1016.6 mb 0.00 in0.0 mm 0.00 in0.0 mm 0.00 in0.0 mm
12:07 PM 38.6°F3.7°C 38.6°F3.7°C 100% Calm Calm 2.1 mph3.4 kmh 30.03 in1016.9 mb 0.00 in0.0 mm 0.00 in0.0 mm 0.00 in0.0 mm
11:37 AM 37.7°F3.2°C 37.7°F3.2°C 100% Calm Calm -- 30.04 in1017.3 mb 0.00 in0.0 mm 0.00 in0.0 mm 0.00 in0.0 mm
11:07 AM 38.1°F3.4°C 38.1°F3.4°C 100% Calm Calm -- 30.05 in1017.6 mb 0.00 in0.0 mm 0.00 in0.0 mm 0.00 in0.0 mm
10:37 AM 35.6°F2.0°C 35.6°F2.0°C 100% Calm Calm -- 30.04 in1017.3 mb 0.00 in0.0 mm 0.00 in0.0 mm 0.00 in0.0 mm
10:07 AM 32.5°F0.3°C 32.5°F0.3°C 100% Calm Calm -- 30.04 in1017.3 mb 0.00 in0.0 mm 0.00 in0.0 mm 0.00 in0.0 mm
09:37 AM 31.8°F-0.1°C 31.8°F-0.1°C 100% Calm Calm -- 30.04 in1017.3 mb 0.00 in0.0 mm 0.00 in0.0 mm 0.00 in0.0 mm
09:07 AM 31.4°F-0.3°C 31.4°F-0.3°C 100% Calm Calm -- 30.03 in1016.9 mb 0.00 in0.0 mm 0.00 in0.0 mm 0.00 in0.0 mm
08:37 AM 31.4°F-0.3°C 31.4°F-0.3°C 100% Calm Calm -- 30.03 in1016.9 mb 0.00 in0.0 mm 0.00 in0.0 mm 0.00 in0.0 mm
08:24 AM 31.2°F-0.4°C 31.2°F-0.4°C 100% Calm Calm -- 30.03 in1016.9 mb 0.00 in0.0 mm 0.00 in0.0 mm 0.00 in0.0 mm
07:54 AM 30.7°F-0.7°C 30.7°F-0.7°C 100% Calm Calm -- 30.03 in1016.9 mb 0.00 in0.0 mm 0.00 in0.0 mm 0.00 in0.0 mm
07:24 AM 30.9°F-0.6°C 30.9°F-0.6°C 100% Calm Calm 1.2 mph1.9 kmh 30.03 in1016.9 mb 0.00 in0.0 mm 0.00 in0.0 mm 0.00 in0.0 mm
06:54 AM 30.9°F-0.6°C 30.9°F-0.6°C 100% Calm Calm 3.1 mph5.0 kmh 30.03 in1016.9 mb 0.00 in0.0 mm 0.00 in0.0 mm 0.00 in0.0 mm
06:24 AM 30.7°F-0.7°C 30.7°F-0.7°C 100% Calm Calm 0.3 mph0.5 kmh 30.02 in1016.6 mb 0.00 in0.0 mm 0.00 in0.0 mm 0.00 in0.0 mm
05:54 AM 30.9°F-0.6°C 30.9°F-0.6°C 100% Calm Calm -- 30.02 in1016.6 mb 0.00 in0.0 mm 0.00 in0.0 mm 0.00 in0.0 mm
05:24 AM 30.7°F-0.7°C 30.7°F-0.7°C 100% Calm Calm -- 30.02 in1016.6 mb 0.00 in0.0 mm 0.00 in0.0 mm 0.00 in0.0 mm
04:54 AM 30.7°F-0.7°C 30.7°F-0.7°C 100% Calm Calm -- 30.02 in1016.6 mb 0.00 in0.0 mm 0.00 in0.0 mm 0.00 in0.0 mm
04:24 AM 30.7°F-0.7°C 30.7°F-0.7°C 100% Calm Calm -- 30.02 in1016.6 mb 0.00 in0.0 mm 0.00 in0.0 mm 0.00 in0.0 mm
03:54 AM 30.5°F-0.8°C 30.5°F-0.8°C 100% Calm Calm -- 30.02 in1016.6 mb 0.00 in0.0 mm 0.00 in0.0 mm 0.00 in0.0 mm
03:24 AM 30.3°F-0.9°C 30.3°F-0.9°C 100% Calm Calm -- 30.03 in1016.9 mb 0.00 in0.0 mm 0.00 in0.0 mm 0.00 in0.0 mm
02:54 AM 29.8°F-1.2°C 29.8°F-1.2°C 100% Calm Calm -- 30.03 in1016.9 mb 0.00 in0.0 mm 0.00 in0.0 mm 0.00 in0.0 mm
02:24 AM 29.3°F-1.5°C 29.3°F-1.5°C 100% Calm Calm -- 30.03 in1016.9 mb 0.00 in0.0 mm 0.00 in0.0 mm 0.00 in0.0 mm
01:54 AM 29.1°F-1.6°C 29.1°F-1.6°C 100% Calm Calm -- 30.03 in1016.9 mb 0.00 in0.0 mm 0.00 in0.0 mm 0.00 in0.0 mm
01:24 AM 28.5°F-1.9°C 28.5°F-1.9°C 100% Calm Calm -- 30.03 in1016.9 mb 0.00 in0.0 mm 0.00 in0.0 mm 0.00 in0.0 mm
12:54 AM 28.2°F-2.1°C 28.2°F-2.1°C 100% Calm Calm -- 30.04 in1017.3 mb 0.00 in0.0 mm 0.00 in0.0 mm 0.00 in0.0 mm
12:24 AM 28.5°F-1.9°C 28.5°F-1.9°C 100% Calm Calm -- 30.05 in1017.6 mb 0.00 in0.0 mm 0.00 in0.0 mm 0.00 in0.0 mm